Time;durP1;ratioP1;P1;durP2;ratioP2;P2;SDS_P1;SDS_P2;PMS_P1;PMS_P2;Temp;Humidity;BMP_temperature;BMP_pressure;BME280_temperature;BME280_humidity;BME280_pressure;Samples;Min_cycle;Max_cycle;Signal;HPM_P1;HPM_P2
2022/02/10 00:16:06;;;;;;;26.55;20.23;;;8.40;87.90;;;;;;4970549;28;20050;-84
2022/02/10 00:21:02;;;;;;;25.92;18.42;;;8.20;88.10;;;;;;4965163;28;20474;-81
2022/02/10 00:36:24;;;;;;;27.45;20.58;;;7.80;88.70;;;;;;4957492;28;20078;-79
2022/02/10 00:38:59;;;;;;;29.75;22.27;;;7.70;88.70;;;;;;4953394;28;20039;-90
2022/02/10 00:41:25;;;;;;;30.95;24.08;;;7.60;88.80;;;;;;4957288;28;20086;-83
2022/02/10 00:43:50;;;;;;;33.72;24.27;;;7.60;88.90;;;;;;4948966;28;20047;-82
2022/02/10 00:46:16;;;;;;;29.83;23.98;;;7.50;89.00;;;;;;4955303;28;20149;-82
2022/02/10 00:48:42;;;;;;;31.20;24.10;;;7.40;89.10;;;;;;4955864;28;20986;-82
2022/02/10 00:51:08;;;;;;;30.75;24.40;;;7.40;89.10;;;;;;4948818;28;20581;-82
2022/02/10 00:53:38;;;;;;;32.80;24.40;;;7.30;89.20;;;;;;4953045;28;20091;-81
2022/02/10 00:56:06;;;;;;;29.58;24.55;;;7.20;89.20;;;;;;4952639;28;20042;-83
2022/02/10 00:58:33;;;;;;;34.28;24.85;;;7.20;89.30;;;;;;4962297;28;20035;-81
2022/02/10 01:30:05;;;;;;;35.70;27.73;;;6.80;90.30;;;;;;4953978;28;20331;-80
2022/02/10 01:32:31;;;;;;;37.35;28.20;;;6.80;90.40;;;;;;4948527;28;20039;-83
2022/02/10 01:34:57;;;;;;;34.50;28.25;;;6.80;90.50;;;;;;4949788;28;20043;-81
2022/02/10 01:37:23;;;;;;;37.72;28.98;;;6.80;90.70;;;;;;4963758;28;20386;-83
2022/02/10 01:39:56;;;;;;;35.67;28.27;;;6.80;90.70;;;;;;4952568;28;20043;-81
2022/02/10 02:03:54;;;;;;;39.45;28.48;;;7.30;90.50;;;;;;4955746;28;20635;-79
2022/02/10 02:06:26;;;;;;;37.47;28.27;;;7.30;90.60;;;;;;4952608;28;20352;-85
2022/02/10 02:08:53;;;;;;;36.15;30.05;;;7.40;90.60;;;;;;4944391;28;20546;-81
2022/02/10 02:11:27;;;;;;;39.55;30.05;;;7.40;90.50;;;;;;4950483;28;20538;-83
2022/02/10 02:13:53;;;;;;;36.70;28.65;;;7.40;90.50;;;;;;4943317;28;20122;-79
2022/02/10 02:16:19;;;;;;;37.60;29.60;;;7.50;90.40;;;;;;4950144;28;20058;-81
2022/02/10 02:18:44;;;;;;;39.88;30.92;;;7.50;90.30;;;;;;4948327;28;20039;-84
2022/02/10 02:21:15;;;;;;;41.38;31.67;;;7.50;90.30;;;;;;4946388;28;20392;-82
2022/02/10 02:23:41;;;;;;;37.90;28.20;;;7.50;90.30;;;;;;4975018;28;20035;-80
2022/02/10 02:26:12;;;;;;;37.45;29.15;;;7.60;90.40;;;;;;4948127;28;20041;-86
2022/02/10 02:28:41;;;;;;;40.33;28.70;;;7.50;90.40;;;;;;4955240;28;20053;-82
2022/02/10 02:31:11;;;;;;;38.55;28.80;;;7.60;90.40;;;;;;4935947;28;20046;-85
2022/02/10 02:36:33;;;;;;;39.35;28.83;;;7.60;90.50;;;;;;4962485;28;20767;-81
2022/02/10 03:06:25;;;;;;;34.35;25.60;;;7.60;90.20;;;;;;4955801;28;20392;-82
2022/02/10 03:08:58;;;;;;;33.70;26.20;;;7.60;90.30;;;;;;4935972;28;20139;-83
2022/02/10 03:11:24;;;;;;;32.47;24.67;;;7.70;90.30;;;;;;4951832;28;20054;-83
2022/02/10 03:13:59;;;;;;;33.85;26.15;;;7.70;90.20;;;;;;4965792;28;20042;-83
2022/02/10 03:16:52;;;;;;;;;;;7.70;90.20;;;;;;4949166;28;20047;-85
2022/02/10 04:07:56;;;;;;;30.60;22.45;;;7.90;89.70;;;;;;4948166;28;20031;-84
2022/02/10 04:16:04;;;;;;;26.77;20.67;;;7.80;89.60;;;;;;4953105;28;20055;-82
2022/02/10 04:21:38;;;;;;;30.40;23.60;;;7.80;89.70;;;;;;4945248;28;20099;-86
2022/02/10 04:32:13;;;;;;;52.15;39.05;;;7.80;89.60;;;;;;4951200;28;20062;-80
2022/02/10 04:38:03;;;;;;;47.85;34.92;;;7.80;89.80;;;;;;4957337;28;20466;-79
2022/02/10 04:57:07;;;;;;;32.37;25.97;;;7.80;89.90;;;;;;4947698;28;20737;-79
2022/02/10 05:04:40;;;;;;;32.73;24.63;;;7.80;90.00;;;;;;4936190;28;20042;-79
2022/02/10 05:35:57;;;;;;;37.78;25.55;;;7.90;89.90;;;;;;4935163;28;20054;-79
2022/02/10 05:38:31;;;;;;;31.52;24.63;;;7.90;90.00;;;;;;4943557;28;20036;-83
2022/02/10 05:43:56;;;;;;;36.60;24.02;;;7.90;90.00;;;;;;4947173;28;20039;-83
2022/02/10 05:46:45;;;;;;;36.35;23.15;;;8.00;90.00;;;;;;4943274;28;20031;-82
2022/02/10 05:50:01;;;;;;;37.15;23.38;;;8.10;90.00;;;;;;4933679;28;20051;-81
2022/02/10 06:51:34;;;;;;;43.10;25.90;;;8.30;90.80;;;;;;4948945;28;20043;-81
2022/02/10 07:10:10;;;;;;;47.75;28.30;;;8.40;91.20;;;;;;4949264;28;20542;-78
2022/02/10 09:00:02;;;;;;;22.42;18.67;;;8.50;91.90;;;;;;4954903;28;20511;-70
2022/02/10 09:04:48;;;;;;;14.95;8.13;;;8.60;91.90;;;;;;4950260;28;20034;-70
2022/02/10 09:15:29;;;;;;;8.40;5.07;;;8.90;91.80;;;;;;4943938;28;20047;-73
2022/02/10 09:58:37;;;;;;;9.82;6.95;;;8.80;89.50;;;;;;4965621;28;20034;-73
2022/02/10 10:01:27;;;;;;;10.57;7.50;;;8.80;89.80;;;;;;4970997;28;20073;-70
2022/02/10 10:03:58;;;;;;;10.18;7.75;;;8.90;89.70;;;;;;4967787;28;20050;-72
2022/02/10 10:23:19;;;;;;;11.13;8.50;;;9.30;88.60;;;;;;4974885;28;20066;-73
2022/02/10 10:50:51;;;;;;;11.57;8.98;;;9.50;87.20;;;;;;4952939;28;20149;-73
2022/02/10 10:53:25;;;;;;;12.80;10.60;;;9.40;87.30;;;;;;4952325;28;20031;-73
2022/02/10 10:58:37;;;;;;;12.77;10.38;;;9.30;87.20;;;;;;4958389;28;20065;-71
2022/02/10 11:37:34;;;;;;;15.40;10.90;;;10.00;86.30;;;;;;4969405;28;20393;-71
2022/02/10 11:40:17;;;;;;;14.30;10.85;;;10.10;86.10;;;;;;4967672;28;20293;-72
2022/02/10 11:43:30;;;;;;;15.20;11.73;;;10.30;86.10;;;;;;4969180;28;20405;-72
2022/02/10 11:46:17;;;;;;;15.30;11.88;;;10.40;85.30;;;;;;4966472;28;20457;-72
2022/02/10 14:18:13;;;;;;;;;;;9.70;72.10;;;;;;4963156;28;20070;-71
2022/02/10 14:25:59;;;;;;;17.27;7.90;;;9.60;73.80;;;;;;4934977;28;20043;-72
2022/02/10 14:28:26;;;;;;;14.32;7.38;;;9.50;74.20;;;;;;4936442;28;20086;-75
2022/02/10 14:30:52;;;;;;;18.85;7.90;;;9.40;74.10;;;;;;4942738;28;20493;-70
2022/02/10 14:33:24;;;;;;;14.95;6.70;;;9.50;74.90;;;;;;4940104;28;20516;-71
2022/02/10 14:39:06;;;;;;;15.95;5.30;;;9.40;75.40;;;;;;4934340;28;20055;-71
2022/02/10 15:46:00;;;;;;;11.75;6.18;;;8.20;77.10;;;;;;4935397;28;20134;-72
2022/02/10 16:17:44;;;;;;;6.70;3.10;;;7.50;80.20;;;;;;4919266;28;20042;-71
2022/02/10 16:20:17;;;;;;;8.85;3.38;;;7.50;80.20;;;;;;4936079;28;20069;-70
2022/02/10 16:22:58;;;;;;;9.05;2.63;;;7.40;80.00;;;;;;4940715;28;20459;-73
2022/02/10 16:25:26;;;;;;;10.32;3.28;;;7.40;80.00;;;;;;4951046;28;20035;-72
2022/02/10 16:27:57;;;;;;;8.38;2.47;;;7.40;80.00;;;;;;4945178;28;20126;-74
2022/02/10 16:30:24;;;;;;;7.68;3.05;;;7.40;80.20;;;;;;4945560;28;20047;-74
2022/02/10 16:32:50;;;;;;;10.27;3.15;;;7.40;80.50;;;;;;4941588;28;20070;-72
2022/02/10 16:35:15;;;;;;;11.70;3.65;;;7.40;80.00;;;;;;4936056;28;20422;-73
2022/02/10 16:37:44;;;;;;;11.48;3.28;;;7.40;80.40;;;;;;4934076;28;20043;-71
2022/02/10 16:40:11;;;;;;;10.73;3.97;;;7.40;79.80;;;;;;4937972;28;20341;-72
2022/02/10 16:42:37;;;;;;;9.70;3.60;;;7.40;79.90;;;;;;4938873;28;20155;-73
2022/02/10 16:45:03;;;;;;;7.82;2.88;;;7.40;79.90;;;;;;4942643;28;20454;-76
2022/02/10 16:47:29;;;;;;;8.88;3.05;;;7.40;79.20;;;;;;4937244;28;20040;-72
2022/02/10 16:49:55;;;;;;;6.82;2.30;;;7.40;78.10;;;;;;4936616;28;20047;-71
2022/02/10 16:52:22;;;;;;;8.98;2.20;;;7.40;76.70;;;;;;4938586;28;20039;-77
2022/02/10 16:54:51;;;;;;;10.60;3.15;;;7.40;76.70;;;;;;4937892;28;20446;-73
2022/02/10 16:59:52;;;;;;;10.18;3.20;;;7.30;78.00;;;;;;4931518;28;20373;-76
2022/02/10 17:02:32;;;;;;;8.25;3.33;;;7.10;78.00;;;;;;4939610;28;20095;-72
2022/02/10 17:28:57;;;;;;;9.38;4.72;;;7.00;77.30;;;;;;4935030;28;20035;-73
2022/02/10 17:36:48;;;;;;;9.00;4.78;;;7.00;77.30;;;;;;4946348;28;20141;-71
2022/02/10 17:42:20;;;;;;;14.02;6.53;;;7.00;76.90;;;;;;4938743;28;20123;-72
2022/02/10 17:45:14;;;;;;;8.82;4.22;;;6.90;71.50;;;;;;4948471;28;20282;-73
2022/02/10 17:53:22;;;;;;;8.77;3.83;;;7.00;73.80;;;;;;4942754;28;20094;-74
2022/02/10 17:55:48;;;;;;;8.02;3.58;;;7.00;73.80;;;;;;4941236;28;20031;-76
2022/02/10 17:58:14;;;;;;;7.20;3.42;;;7.00;73.60;;;;;;4943151;28;20039;-74
2022/02/10 18:00:39;;;;;;;6.88;3.88;;;6.90;74.20;;;;;;4931167;28;20043;-75
2022/02/10 18:03:05;;;;;;;7.60;3.90;;;6.90;74.20;;;;;;4927539;28;20119;-74
2022/02/10 18:08:19;;;;;;;13.15;8.18;;;7.00;75.20;;;;;;4935224;28;20148;-78
2022/02/10 18:16:30;;;;;;;10.85;6.43;;;7.00;75.20;;;;;;4929596;28;20042;-78
2022/02/10 18:19:05;;;;;;;19.52;12.05;;;7.00;74.70;;;;;;4943440;28;20049;-78
2022/02/10 18:22:04;;;;;;;10.13;4.50;;;6.90;75.40;;;;;;4934914;28;20446;-77
2022/02/10 18:24:51;;;;;;;8.20;5.18;;;6.80;75.10;;;;;;4937213;28;20441;-75
2022/02/10 18:30:00;;;;;;;8.77;4.32;;;6.80;75.70;;;;;;4927815;28;20054;-77
2022/02/10 18:54:22;;;;;;;9.90;5.05;;;6.60;74.20;;;;;;4927030;28;20042;-75
2022/02/10 19:10:12;;;;;;;;;;;6.20;75.10;;;;;;4942407;28;20392;-76
2022/02/10 19:12:45;;;;;;;5.82;3.35;;;6.10;75.70;;;;;;4942811;28;19918;-75
2022/02/10 19:15:32;;;;;;;6.57;3.55;;;6.10;76.70;;;;;;4947351;28;20470;-75
2022/02/10 19:17:59;;;;;;;6.82;3.83;;;6.10;77.50;;;;;;4943939;28;20050;-75
2022/02/10 19:20:26;;;;;;;8.35;4.55;;;6.10;78.30;;;;;;4944433;28;20532;-76
2022/02/10 19:22:52;;;;;;;7.88;4.30;;;6.00;79.00;;;;;;4938978;28;20592;-75
2022/02/10 19:25:20;;;;;;;10.52;3.88;;;5.90;79.40;;;;;;4934748;28;20071;-75
2022/02/10 19:27:48;;;;;;;7.55;4.80;;;5.90;79.90;;;;;;4939117;28;20039;-75
2022/02/10 19:30:16;;;;;;;11.05;6.10;;;5.90;80.20;;;;;;4943097;28;20350;-75
2022/02/10 19:32:48;;;;;;;10.35;6.03;;;6.00;80.50;;;;;;4940799;28;20043;-75
2022/02/10 19:35:16;;;;;;;9.25;5.25;;;5.90;80.80;;;;;;4936356;28;20125;-75
2022/02/10 19:37:44;;;;;;;9.00;5.57;;;5.90;80.60;;;;;;4930725;28;20036;-75
2022/02/10 19:40:11;;;;;;;10.27;5.20;;;6.00;80.60;;;;;;4948661;28;20086;-74
2022/02/10 19:42:38;;;;;;;8.18;4.75;;;5.90;81.10;;;;;;4932629;28;20032;-75
2022/02/10 19:45:06;;;;;;;9.82;5.25;;;5.90;81.30;;;;;;4940206;28;20040;-75
2022/02/10 19:47:34;;;;;;;11.10;6.72;;;6.00;81.70;;;;;;4943012;28;20039;-74
2022/02/10 19:50:08;;;;;;;11.52;7.28;;;6.00;81.60;;;;;;4942466;28;20051;-74
2022/02/10 19:52:37;;;;;;;10.85;6.82;;;5.90;81.80;;;;;;4938369;28;20095;-78
2022/02/10 19:55:03;;;;;;;10.50;6.50;;;5.90;82.20;;;;;;4942248;28;20502;-77
2022/02/10 19:57:31;;;;;;;11.13;6.00;;;6.00;82.20;;;;;;4943111;28;20090;-77
2022/02/10 19:59:59;;;;;;;11.45;6.15;;;6.00;82.40;;;;;;4942093;28;20099;-77
2022/02/10 20:02:25;;;;;;;11.63;6.32;;;6.00;82.30;;;;;;4945586;28;20047;-77
2022/02/10 20:04:51;;;;;;;12.85;6.90;;;5.90;82.10;;;;;;4945409;28;20114;-77
2022/02/10 20:07:16;;;;;;;10.55;6.82;;;5.90;81.80;;;;;;4944212;28;20049;-77
2022/02/10 20:09:42;;;;;;;14.27;8.48;;;5.90;81.80;;;;;;4946907;28;20045;-78
2022/02/10 20:12:08;;;;;;;14.00;9.07;;;5.90;81.60;;;;;;4947757;28;20107;-78
2022/02/10 20:14:34;;;;;;;14.05;8.32;;;5.90;81.70;;;;;;4943768;28;20047;-78
2022/02/10 20:17:01;;;;;;;11.32;7.18;;;5.90;81.60;;;;;;4955049;28;20467;-78
2022/02/10 20:19:27;;;;;;;10.45;7.95;;;5.90;81.70;;;;;;4962205;28;20034;-78
2022/02/10 20:21:54;;;;;;;21.08;10.70;;;5.80;81.70;;;;;;4958453;28;20031;-77
2022/02/10 20:24:20;;;;;;;17.00;10.40;;;5.80;81.80;;;;;;4940558;28;20534;-77
2022/02/10 20:26:45;;;;;;;17.75;10.13;;;5.80;81.70;;;;;;4957951;28;20122;-77
2022/02/10 20:29:11;;;;;;;15.23;8.77;;;5.80;81.80;;;;;;4959887;28;20038;-78
2022/02/10 20:31:39;;;;;;;13.15;7.72;;;5.80;81.70;;;;;;4947793;28;20046;-78
2022/02/10 20:34:11;;;;;;;13.10;8.43;;;5.80;81.70;;;;;;4946141;28;20375;-77
2022/02/10 20:36:37;;;;;;;11.85;8.55;;;5.80;81.60;;;;;;4943636;28;20397;-76
2022/02/10 20:39:07;;;;;;;12.40;8.10;;;5.80;81.90;;;;;;4951265;28;20048;-75
2022/02/10 20:41:35;;;;;;;9.60;6.65;;;5.90;82.00;;;;;;4959225;28;20532;-77
2022/02/10 20:44:02;;;;;;;9.52;6.30;;;5.90;81.80;;;;;;4955414;28;20035;-78
2022/02/10 20:46:29;;;;;;;9.90;6.22;;;5.90;81.70;;;;;;4948201;28;20035;-77
2022/02/10 20:48:56;;;;;;;11.35;7.72;;;5.80;81.70;;;;;;4944920;28;20039;-77
2022/02/10 20:51:22;;;;;;;9.70;7.00;;;5.80;81.80;;;;;;4936983;28;20067;-77
2022/02/10 20:53:49;;;;;;;9.45;6.65;;;5.80;81.50;;;;;;4945863;28;20078;-77
2022/02/10 20:56:18;;;;;;;11.32;6.68;;;5.70;81.50;;;;;;4950487;28;20377;-77
2022/02/10 20:58:44;;;;;;;12.23;6.68;;;5.60;81.80;;;;;;4954293;28;20027;-76
2022/02/10 21:01:13;;;;;;;9.98;6.35;;;5.60;82.20;;;;;;4958490;28;20035;-76
2022/02/10 21:03:40;;;;;;;8.88;5.80;;;5.60;82.10;;;;;;4951247;28;20035;-77
2022/02/10 21:06:14;;;;;;;12.40;6.00;;;5.60;82.50;;;;;;4946880;28;20046;-76
2022/02/10 21:11:06;;;;;;;9.73;6.07;;;5.50;82.40;;;;;;4957081;28;20133;-77
2022/02/10 21:13:32;;;;;;;10.45;7.18;;;5.50;82.50;;;;;;4964353;28;20028;-77
2022/02/10 21:15:59;;;;;;;12.93;6.47;;;5.40;82.70;;;;;;4954477;28;20057;-77
2022/02/10 21:18:26;;;;;;;10.45;6.30;;;5.30;82.90;;;;;;4954741;28;20027;-75
2022/02/10 21:20:57;;;;;;;10.60;6.93;;;5.30;83.30;;;;;;4948130;28;20071;-77
2022/02/10 21:23:29;;;;;;;10.77;6.75;;;5.20;83.30;;;;;;4940813;28;20177;-78
2022/02/10 21:25:57;;;;;;;8.80;5.97;;;5.20;83.40;;;;;;4937376;28;20074;-77
2022/02/10 21:28:30;;;;;;;9.77;6.28;;;5.10;83.60;;;;;;4947891;28;20031;-77
2022/02/10 21:31:01;;;;;;;9.23;6.03;;;5.10;83.90;;;;;;4946124;28;20050;-77
2022/02/10 21:33:44;;;;;;;11.82;6.53;;;5.00;84.20;;;;;;4946040;28;20594;-77
2022/02/10 22:03:47;;;;;;;13.57;7.18;;;4.70;85.40;;;;;;4955782;28;20118;-76
2022/02/10 22:06:19;;;;;;;12.95;8.13;;;4.60;85.60;;;;;;4950450;28;20445;-77
2022/02/10 22:09:16;;;;;;;12.48;7.60;;;4.60;85.60;;;;;;4948483;28;20070;-76
2022/02/10 22:19:45;;;;;;;15.65;8.02;;;4.60;85.70;;;;;;4946670;28;20089;-76
2022/02/10 22:22:19;;;;;;;16.05;7.95;;;4.60;85.70;;;;;;4955043;28;20030;-75
2022/02/10 22:24:45;;;;;;;19.63;8.90;;;4.50;85.80;;;;;;4948129;28;20038;-76
2022/02/10 22:27:10;;;;;;;18.00;8.77;;;4.50;85.90;;;;;;4942907;28;20043;-77
2022/02/10 22:29:43;;;;;;;12.43;7.90;;;4.40;86.10;;;;;;4960351;28;20042;-75
2022/02/10 22:32:26;;;;;;;14.48;8.63;;;4.40;86.10;;;;;;4937228;28;20230;-75
2022/02/10 22:34:54;;;;;;;13.15;7.47;;;4.40;86.10;;;;;;4938277;28;20046;-77
2022/02/10 22:37:21;;;;;;;16.20;8.70;;;4.50;85.80;;;;;;4947273;28;20074;-75
2022/02/10 22:39:49;;;;;;;13.60;8.60;;;4.40;85.90;;;;;;4944167;28;20045;-76
2022/02/10 22:42:15;;;;;;;13.80;8.50;;;4.40;86.10;;;;;;4944002;28;20035;-76
2022/02/10 22:44:42;;;;;;;13.80;7.70;;;4.30;86.10;;;;;;4950557;28;20028;-76
2022/02/10 22:47:08;;;;;;;24.17;9.27;;;4.40;85.80;;;;;;4952554;28;20479;-76
2022/02/10 22:49:35;;;;;;;19.98;9.20;;;4.40;85.80;;;;;;4942507;28;20157;-77
2022/02/10 22:52:00;;;;;;;20.88;8.80;;;4.40;85.80;;;;;;4940041;28;20666;-77
2022/02/10 22:54:26;;;;;;;14.82;8.48;;;4.30;85.80;;;;;;4946962;28;20051;-78
2022/02/10 22:56:53;;;;;;;19.95;7.95;;;4.30;85.90;;;;;;4964342;28;20549;-77
2022/02/10 22:59:19;;;;;;;16.42;8.35;;;4.30;85.90;;;;;;4955754;28;20046;-76
2022/02/10 23:01:45;;;;;;;12.13;7.82;;;4.30;86.00;;;;;;4941679;28;20111;-75
2022/02/10 23:04:11;;;;;;;14.55;8.70;;;4.20;85.80;;;;;;4943343;28;20437;-77
2022/02/10 23:06:38;;;;;;;18.20;8.48;;;4.30;85.80;;;;;;4946480;28;20067;-76
2022/02/10 23:11:57;;;;;;;16.33;8.55;;;4.20;85.70;;;;;;4941212;28;20071;-78
2022/02/10 23:14:22;;;;;;;19.17;8.73;;;4.20;85.90;;;;;;4941622;28;20058;-77
2022/02/10 23:16:48;;;;;;;18.33;9.70;;;4.20;85.80;;;;;;4942952;28;20470;-76
2022/02/10 23:19:15;;;;;;;19.17;10.00;;;4.10;85.80;;;;;;4936488;28;20019;-76
2022/02/10 23:21:41;;;;;;;20.45;12.25;;;4.10;85.70;;;;;;4956951;28;20127;-77
2022/02/10 23:24:06;;;;;;;19.63;11.30;;;4.10;85.80;;;;;;4954556;28;20047;-77
2022/02/10 23:26:32;;;;;;;17.02;12.05;;;4.10;85.80;;;;;;4957780;28;20123;-77
2022/02/10 23:28:59;;;;;;;21.05;12.48;;;4.10;85.90;;;;;;4949118;28;20043;-77
2022/02/10 23:31:26;;;;;;;18.02;13.35;;;4.10;85.90;;;;;;4951310;28;20475;-76
2022/02/10 23:33:56;;;;;;;18.42;11.93;;;4.00;85.90;;;;;;4942525;28;20146;-77
2022/02/10 23:39:12;;;;;;;18.15;10.82;;;4.00;85.70;;;;;;4959882;28;20038;-76
2022/02/10 23:44:16;;;;;;;18.27;8.05;;;4.00;85.80;;;;;;4951499;28;20035;-78
2022/02/10 23:46:43;;;;;;;16.33;7.68;;;4.00;85.70;;;;;;4947571;28;20132;-77
2022/02/10 23:49:09;;;;;;;15.07;7.63;;;4.00;85.40;;;;;;4949666;28;20646;-77
2022/02/10 23:51:45;;;;;;;13.18;6.53;;;4.10;85.10;;;;;;4944182;28;20054;-76
2022/02/10 23:54:11;;;;;;;21.05;7.82;;;4.00;84.90;;;;;;4970310;28;20038;-76
2022/02/10 23:56:42;;;;;;;14.70;6.63;;;4.00;84.80;;;;;;4957067;28;20039;-77
